createdAt,value
2019-01-20T00:00:23.504Z,0.00
2019-01-20T00:01:23.487Z,0.00
2019-01-20T00:02:23.474Z,0.00
2019-01-20T00:03:23.469Z,0.00
2019-01-20T00:04:23.454Z,0.00
2019-01-20T00:05:23.463Z,0.00
2019-01-20T00:06:23.433Z,0.00
2019-01-20T00:07:23.423Z,0.00
2019-01-20T00:08:23.412Z,0.00
2019-01-20T00:09:23.405Z,0.00
2019-01-20T00:10:23.399Z,0.00
2019-01-20T00:11:24.230Z,0.00
2019-01-20T00:12:23.370Z,0.00
2019-01-20T00:13:23.359Z,0.00
2019-01-20T00:14:23.357Z,0.00
2019-01-20T00:15:23.353Z,0.00
2019-01-20T00:16:23.330Z,0.00
2019-01-20T00:17:23.319Z,0.00
2019-01-20T00:18:23.308Z,0.00
2019-01-20T00:19:23.297Z,0.00
2019-01-20T00:20:23.400Z,0.00
2019-01-20T00:21:23.275Z,0.00
2019-01-20T00:22:23.266Z,0.00
2019-01-20T00:23:23.255Z,0.00
2019-01-20T00:24:23.245Z,0.00
2019-01-20T00:25:23.234Z,0.00
2019-01-20T00:26:23.233Z,0.00
2019-01-20T00:27:23.214Z,0.00
2019-01-20T00:28:23.206Z,0.00
2019-01-20T00:29:23.194Z,0.00
2019-01-20T00:30:23.182Z,0.00
2019-01-20T00:31:23.184Z,0.00
2019-01-20T00:32:23.162Z,0.00
2019-01-20T00:33:23.150Z,0.00
2019-01-20T00:34:23.231Z,0.00
2019-01-20T00:35:23.131Z,0.00
2019-01-20T00:36:23.131Z,0.00
2019-01-20T00:37:23.110Z,0.00
2019-01-20T00:38:23.098Z,0.00
2019-01-20T00:39:23.087Z,0.00
2019-01-20T00:40:23.083Z,0.00
2019-01-20T00:41:24.283Z,0.00
2019-01-20T00:42:23.058Z,0.00
2019-01-20T00:43:23.046Z,0.00
2019-01-20T00:44:23.036Z,0.00
2019-01-20T00:45:23.025Z,0.00
2019-01-20T00:46:23.023Z,0.00
2019-01-20T00:47:23.005Z,0.00
2019-01-20T00:48:22.995Z,0.00
2019-01-20T00:49:22.985Z,0.00
2019-01-20T00:50:22.976Z,0.00
2019-01-20T00:51:22.972Z,0.00
2019-01-20T00:52:22.955Z,0.00
2019-01-20T00:53:22.942Z,0.00
2019-01-20T00:54:22.931Z,0.00
2019-01-20T00:55:22.921Z,0.00
2019-01-20T00:56:22.912Z,0.00
2019-01-20T00:57:22.910Z,0.00
2019-01-20T00:58:22.894Z,0.00
2019-01-20T00:59:22.879Z,0.00
2019-01-20T01:00:22.869Z,0.00
2019-01-20T01:01:22.862Z,0.00
2019-01-20T01:02:22.859Z,0.00
2019-01-20T01:03:22.839Z,0.00
2019-01-20T01:04:22.831Z,0.00
2019-01-20T01:05:22.819Z,0.00
2019-01-20T01:06:22.809Z,0.00
2019-01-20T01:07:22.806Z,0.00
2019-01-20T01:08:22.786Z,0.00
2019-01-20T01:09:22.778Z,0.00
2019-01-20T01:10:22.765Z,0.00
2019-01-20T01:11:22.755Z,0.00
2019-01-20T01:12:22.753Z,0.00
2019-01-20T01:13:22.734Z,0.00
2019-01-20T01:14:22.727Z,0.00
2019-01-20T01:15:22.719Z,0.00
2019-01-20T01:16:22.703Z,0.00
2019-01-20T01:17:22.701Z,0.00
2019-01-20T01:18:22.682Z,0.00
2019-01-20T01:19:22.672Z,0.00
2019-01-20T01:20:22.665Z,0.00
2019-01-20T01:21:22.650Z,0.00
2019-01-20T01:22:22.652Z,0.00
2019-01-20T01:23:22.630Z,0.00
2019-01-20T01:24:22.620Z,0.00
2019-01-20T01:25:22.610Z,0.00
2019-01-20T01:26:22.603Z,0.00
2019-01-20T01:27:22.598Z,0.00
2019-01-20T01:28:22.580Z,0.00
2019-01-20T01:29:22.569Z,0.00
2019-01-20T01:30:22.559Z,0.00
2019-01-20T01:31:22.547Z,0.00
2019-01-20T01:32:22.546Z,0.00
2019-01-20T01:33:22.528Z,0.00
2019-01-20T01:34:22.518Z,0.00
2019-01-20T01:35:22.509Z,0.00
2019-01-20T01:36:22.496Z,0.00
2019-01-20T01:37:22.495Z,0.00
2019-01-20T01:38:22.476Z,0.00
2019-01-20T01:39:22.464Z,0.00
2019-01-20T01:40:22.457Z,0.00
2019-01-20T01:41:22.444Z,0.00
2019-01-20T01:42:22.443Z,0.00
2019-01-20T01:43:22.425Z,0.00
2019-01-20T01:44:22.414Z,0.00
2019-01-20T01:45:22.403Z,0.00
2019-01-20T01:46:22.393Z,0.00
2019-01-20T01:47:22.419Z,0.00
2019-01-20T01:48:22.372Z,0.00
2019-01-20T01:49:22.364Z,0.00
2019-01-20T01:50:22.352Z,0.00
2019-01-20T01:51:22.342Z,0.00
2019-01-20T01:52:22.333Z,0.00
2019-01-20T01:53:22.331Z,0.00
2019-01-20T01:54:22.310Z,0.00
2019-01-20T01:55:22.301Z,0.00
2019-01-20T01:56:22.292Z,0.00
2019-01-20T01:57:22.279Z,0.00
2019-01-20T01:58:22.281Z,0.00
2019-01-20T01:59:22.262Z,0.00
2019-01-20T02:00:22.251Z,0.00
2019-01-20T02:01:22.239Z,0.00
2019-01-20T02:02:22.232Z,0.00
2019-01-20T02:03:22.228Z,0.00
2019-01-20T02:04:22.210Z,0.00
2019-01-20T02:05:22.198Z,0.00
2019-01-20T02:06:22.188Z,0.00
2019-01-20T02:07:22.179Z,0.00
2019-01-20T02:08:22.178Z,0.00
2019-01-20T02:09:22.158Z,0.00
2019-01-20T02:10:22.146Z,0.00
2019-01-20T02:11:22.136Z,0.00
2019-01-20T02:12:22.127Z,0.00
2019-01-20T02:13:22.133Z,0.00
2019-01-20T02:14:22.105Z,0.00
2019-01-20T02:15:22.096Z,0.00
2019-01-20T02:16:22.084Z,0.00
2019-01-20T02:17:22.076Z,0.00
2019-01-20T02:18:22.064Z,0.00
2019-01-20T02:19:22.062Z,0.00
2019-01-20T02:20:22.043Z,0.00
2019-01-20T02:21:22.033Z,0.00
2019-01-20T02:22:22.023Z,0.00
2019-01-20T02:23:22.013Z,0.00
2019-01-20T02:24:22.010Z,0.00
2019-01-20T02:25:21.995Z,0.00
2019-01-20T02:26:21.985Z,0.00
2019-01-20T02:27:21.974Z,0.00
2019-01-20T02:28:21.963Z,0.00
2019-01-20T02:29:21.961Z,0.00
2019-01-20T02:30:21.945Z,0.00
2019-01-20T02:31:21.945Z,0.00
2019-01-20T02:32:21.920Z,0.00
2019-01-20T02:33:21.914Z,0.00
2019-01-20T02:34:21.915Z,0.00
2019-01-20T02:35:21.889Z,0.00
2019-01-20T02:36:21.878Z,0.00
2019-01-20T02:37:21.869Z,0.00
2019-01-20T02:38:21.859Z,0.00
2019-01-20T02:39:21.862Z,0.00
2019-01-20T02:40:21.843Z,0.00
2019-01-20T02:41:21.829Z,0.00
2019-01-20T02:42:21.819Z,0.00
2019-01-20T02:43:21.809Z,0.00
2019-01-20T02:44:21.814Z,0.00
2019-01-20T02:45:21.787Z,0.00
2019-01-20T02:46:21.822Z,0.00
2019-01-20T02:47:21.765Z,0.00
2019-01-20T02:48:21.755Z,0.00
2019-01-20T02:49:21.755Z,0.00
2019-01-20T02:50:21.733Z,0.00
2019-01-20T02:51:21.724Z,0.00
2019-01-20T02:52:21.712Z,0.00
2019-01-20T02:53:21.703Z,0.00
2019-01-20T02:54:21.704Z,0.00
2019-01-20T02:55:21.681Z,0.00
2019-01-20T02:56:21.674Z,0.00
2019-01-20T02:57:21.662Z,0.00
2019-01-20T02:58:21.651Z,0.00
2019-01-20T02:59:21.649Z,0.00
2019-01-20T03:00:21.632Z,0.00
2019-01-20T03:01:21.623Z,0.00
2019-01-20T03:02:21.612Z,0.00
2019-01-20T03:03:21.604Z,0.00
2019-01-20T03:04:21.599Z,0.00
2019-01-20T03:05:21.580Z,0.00
2019-01-20T03:06:21.568Z,0.00
2019-01-20T03:07:21.560Z,0.00
2019-01-20T03:08:21.548Z,0.00
2019-01-20T03:09:21.553Z,0.00
2019-01-20T03:10:21.529Z,0.00
2019-01-20T03:11:21.519Z,0.00
2019-01-20T03:12:21.506Z,0.00
2019-01-20T03:13:21.496Z,0.00
2019-01-20T03:14:21.500Z,0.00
2019-01-20T03:15:21.478Z,0.00
2019-01-20T03:16:21.464Z,0.00
2019-01-20T03:17:21.458Z,0.00
2019-01-20T03:18:21.446Z,0.00
2019-01-20T03:19:21.444Z,0.00
2019-01-20T03:20:21.424Z,0.00
2019-01-20T03:21:21.419Z,0.00
2019-01-20T03:22:21.403Z,0.00
2019-01-20T03:23:21.394Z,0.00
2019-01-20T03:24:21.392Z,0.00
2019-01-20T03:25:21.373Z,0.00
2019-01-20T03:26:21.362Z,0.00
2019-01-20T03:27:21.355Z,0.00
2019-01-20T03:28:21.343Z,0.00
2019-01-20T03:29:21.340Z,0.00
2019-01-20T03:30:21.324Z,0.00
2019-01-20T03:31:21.314Z,0.00
2019-01-20T03:32:21.302Z,0.00
2019-01-20T03:33:21.296Z,0.00
2019-01-20T03:34:21.294Z,0.00
2019-01-20T03:35:21.273Z,0.00
2019-01-20T03:36:21.260Z,0.00
2019-01-20T03:37:21.252Z,0.00
2019-01-20T03:38:21.240Z,0.00
2019-01-20T03:39:21.243Z,0.00
2019-01-20T03:40:21.220Z,0.00
2019-01-20T03:41:21.216Z,0.00
2019-01-20T03:42:21.199Z,0.00
2019-01-20T03:43:21.190Z,0.00
2019-01-20T03:44:21.196Z,0.00
2019-01-20T03:45:21.176Z,0.00
2019-01-20T03:46:21.158Z,0.00
2019-01-20T03:47:21.147Z,0.00
2019-01-20T03:48:21.138Z,0.00
2019-01-20T03:49:21.135Z,0.00
2019-01-20T03:50:21.117Z,0.00
2019-01-20T03:51:21.154Z,0.00
2019-01-20T03:52:21.096Z,0.00
2019-01-20T03:53:21.086Z,0.00
2019-01-20T03:54:21.087Z,0.00
2019-01-20T03:55:21.066Z,0.00
2019-01-20T03:56:21.057Z,0.00
2019-01-20T03:57:21.052Z,0.00
2019-01-20T03:58:21.034Z,0.00
2019-01-20T03:59:21.033Z,0.00
2019-01-20T04:00:21.017Z,0.00
2019-01-20T04:01:21.005Z,0.00
2019-01-20T04:02:21.008Z,0.00
2019-01-20T04:03:20.987Z,0.00
2019-01-20T04:04:20.982Z,0.00
2019-01-20T04:05:20.966Z,0.00
2019-01-20T04:06:20.954Z,0.00
2019-01-20T04:07:20.943Z,0.00
2019-01-20T04:08:20.932Z,0.00
2019-01-20T04:09:20.930Z,0.00
2019-01-20T04:10:20.912Z,0.00
2019-01-20T04:11:20.901Z,0.00
2019-01-20T04:12:21.124Z,0.00
2019-01-20T04:13:20.881Z,0.00
2019-01-20T04:14:20.880Z,0.00
2019-01-20T04:15:20.882Z,0.00
2019-01-20T04:16:20.850Z,0.00
2019-01-20T04:17:20.841Z,0.00
2019-01-20T04:18:20.831Z,0.00
2019-01-20T04:19:20.830Z,0.00
2019-01-20T04:20:20.811Z,0.00
2019-01-20T04:21:20.805Z,0.00
2019-01-20T04:22:20.790Z,0.00
2019-01-20T04:23:20.778Z,0.00
2019-01-20T04:24:20.779Z,0.00
2019-01-20T04:25:20.757Z,0.00
2019-01-20T04:26:20.749Z,0.00
2019-01-20T04:27:20.743Z,0.00
2019-01-20T04:28:20.729Z,0.00
2019-01-20T04:29:20.730Z,0.00
2019-01-20T04:30:20.707Z,0.00
2019-01-20T04:31:20.695Z,0.00
2019-01-20T04:32:20.687Z,0.00
2019-01-20T04:33:20.679Z,0.00
2019-01-20T04:34:20.674Z,0.00
2019-01-20T04:35:20.654Z,0.00
2019-01-20T04:36:20.646Z,0.00
2019-01-20T04:37:20.643Z,0.00
2019-01-20T04:38:20.626Z,0.00
2019-01-20T04:39:20.641Z,0.00
2019-01-20T04:40:20.606Z,0.00
2019-01-20T04:41:20.595Z,0.00
2019-01-20T04:42:28.765Z,0.00
2019-01-20T04:43:21.575Z,0.00
2019-01-20T04:44:20.564Z,0.00
2019-01-20T04:45:20.563Z,0.00
2019-01-20T04:46:20.544Z,0.00
2019-01-20T04:47:20.532Z,0.00
2019-01-20T04:48:20.526Z,0.00
2019-01-20T04:49:20.511Z,0.00
2019-01-20T04:50:20.509Z,0.00
2019-01-20T04:51:20.499Z,0.00
2019-01-20T04:52:20.483Z,0.00
2019-01-20T04:53:20.473Z,0.00
2019-01-20T04:54:20.460Z,0.00
2019-01-20T04:55:20.464Z,0.00
2019-01-20T04:56:20.441Z,0.00
2019-01-20T04:57:20.433Z,0.00
2019-01-20T04:58:20.422Z,0.00
2019-01-20T04:59:20.410Z,0.00
2019-01-20T05:00:20.410Z,0.00
2019-01-20T05:01:20.394Z,0.00
2019-01-20T05:02:20.380Z,0.00
2019-01-20T05:03:20.374Z,0.00
2019-01-20T05:04:20.360Z,0.00
2019-01-20T05:05:20.356Z,0.00
2019-01-20T05:06:20.340Z,0.00
2019-01-20T05:07:20.328Z,0.00
2019-01-20T05:08:20.319Z,0.00
2019-01-20T05:09:20.313Z,0.00
2019-01-20T05:10:20.308Z,0.00
2019-01-20T05:11:20.288Z,0.00
2019-01-20T05:12:20.279Z,0.00
2019-01-20T05:13:20.267Z,0.00
2019-01-20T05:14:20.260Z,0.00
2019-01-20T05:15:20.255Z,0.00
2019-01-20T05:16:20.237Z,0.00
2019-01-20T05:17:20.225Z,0.00
2019-01-20T05:18:20.215Z,0.00
2019-01-20T05:19:20.206Z,0.00
2019-01-20T05:20:20.205Z,0.00
2019-01-20T05:21:20.195Z,0.00
2019-01-20T05:22:20.181Z,0.00
2019-01-20T05:23:20.165Z,0.00
2019-01-20T05:24:20.155Z,0.00
2019-01-20T05:25:20.172Z,0.00
2019-01-20T05:26:20.134Z,0.00
2019-01-20T05:27:20.127Z,0.00
2019-01-20T05:28:20.113Z,0.00
2019-01-20T05:29:20.103Z,0.00
2019-01-20T05:30:20.097Z,0.00
2019-01-20T05:31:20.091Z,0.00
2019-01-20T05:32:20.092Z,0.00
2019-01-20T05:33:20.067Z,0.00
2019-01-20T05:34:20.051Z,0.00
2019-01-20T05:35:20.048Z,0.00
2019-01-20T05:36:20.040Z,0.00
2019-01-20T05:37:20.021Z,0.00
2019-01-20T05:38:20.012Z,0.00
2019-01-20T05:39:20.006Z,0.00
2019-01-20T05:40:19.992Z,0.00
2019-01-20T05:41:20.009Z,0.00
2019-01-20T05:42:19.971Z,0.00
2019-01-20T05:43:19.960Z,0.00
2019-01-20T05:44:19.952Z,0.00
2019-01-20T05:45:19.943Z,0.00
2019-01-20T05:46:19.929Z,0.00
2019-01-20T05:47:19.930Z,0.00
2019-01-20T05:48:19.909Z,0.00
2019-01-20T05:49:19.900Z,0.00
2019-01-20T05:50:19.890Z,0.00
2019-01-20T05:51:19.882Z,0.00
2019-01-20T05:52:19.876Z,0.00
2019-01-20T05:53:19.863Z,0.00
2019-01-20T05:54:19.854Z,0.00
2019-01-20T05:55:19.838Z,0.00
2019-01-20T05:56:19.828Z,0.00
2019-01-20T05:57:19.826Z,0.00
2019-01-20T05:58:19.808Z,0.00
2019-01-20T05:59:19.799Z,0.00
2019-01-20T06:00:19.786Z,0.00
2019-01-20T06:01:19.776Z,0.00
2019-01-20T06:02:19.776Z,0.00
2019-01-20T06:03:19.764Z,0.00
2019-01-20T06:04:19.747Z,0.00
2019-01-20T06:05:19.735Z,0.00
2019-01-20T06:06:19.725Z,0.00
2019-01-20T06:07:19.723Z,0.00
2019-01-20T06:08:19.705Z,0.00
2019-01-20T06:09:19.698Z,0.00
2019-01-20T06:10:19.683Z,0.00
2019-01-20T06:11:19.676Z,0.00
2019-01-20T06:12:19.671Z,0.00
2019-01-20T06:13:19.653Z,0.00
2019-01-20T06:14:19.645Z,0.00
2019-01-20T06:15:19.637Z,0.00
2019-01-20T06:16:19.624Z,0.00
2019-01-20T06:17:19.623Z,0.00
2019-01-20T06:18:19.603Z,0.00
2019-01-20T06:19:19.594Z,0.00
2019-01-20T06:20:19.584Z,0.00
2019-01-20T06:21:19.580Z,0.00
2019-01-20T06:22:19.569Z,0.00
2019-01-20T06:23:19.554Z,0.00
2019-01-20T06:24:19.541Z,0.00
2019-01-20T06:25:19.549Z,0.00
2019-01-20T06:26:19.521Z,0.00
2019-01-20T06:27:19.523Z,4.00
2019-01-20T06:28:19.501Z,4.00
2019-01-20T06:29:19.492Z,4.00
2019-01-20T06:30:19.481Z,0.00
2019-01-20T06:31:19.472Z,4.00
2019-01-20T06:32:19.468Z,4.00
2019-01-20T06:33:19.453Z,4.00
2019-01-20T06:34:19.441Z,4.00
2019-01-20T06:35:19.430Z,8.00
2019-01-20T06:36:19.419Z,4.00
2019-01-20T06:37:19.419Z,4.00
2019-01-20T06:38:19.398Z,8.00
2019-01-20T06:39:19.391Z,8.00
2019-01-20T06:40:19.384Z,8.00
2019-01-20T06:41:19.367Z,12.00
2019-01-20T06:42:19.370Z,12.00
2019-01-20T06:43:19.349Z,20.00
2019-01-20T06:44:19.336Z,20.00
2019-01-20T06:45:19.328Z,24.00
2019-01-20T06:46:19.318Z,24.00
2019-01-20T06:47:19.341Z,32.00
2019-01-20T06:48:19.295Z,32.00
2019-01-20T06:49:19.285Z,40.00
2019-01-20T06:50:19.293Z,40.00
2019-01-20T06:51:19.266Z,48.00
2019-01-20T06:52:19.256Z,52.00
2019-01-20T06:53:19.251Z,60.00
2019-01-20T06:54:19.235Z,72.00
2019-01-20T06:55:19.223Z,76.00
2019-01-20T06:56:19.215Z,84.00
2019-01-20T06:57:19.206Z,92.00
2019-01-20T06:58:19.202Z,104.00
2019-01-20T06:59:19.183Z,116.00
2019-01-20T07:00:19.173Z,124.00
2019-01-20T07:01:19.162Z,136.00
2019-01-20T07:02:19.151Z,148.00
2019-01-20T07:03:19.152Z,164.00
2019-01-20T07:04:19.134Z,176.00
2019-01-20T07:05:19.120Z,188.00
2019-01-20T07:06:19.111Z,204.00
2019-01-20T07:07:19.100Z,220.00
2019-01-20T07:08:19.100Z,236.00
2019-01-20T07:09:19.083Z,252.00
2019-01-20T07:10:19.068Z,272.00
2019-01-20T07:11:19.060Z,288.00
2019-01-20T07:12:19.048Z,308.00
2019-01-20T07:13:19.051Z,328.00
2019-01-20T07:14:19.033Z,348.00
2019-01-20T07:15:19.027Z,368.00
2019-01-20T07:16:19.009Z,388.00
2019-01-20T07:17:18.996Z,408.00
2019-01-20T07:18:18.995Z,428.00
2019-01-20T07:19:18.977Z,452.00
2019-01-20T07:20:18.969Z,476.00
2019-01-20T07:21:18.963Z,500.00
2019-01-20T07:22:18.945Z,520.00
2019-01-20T07:23:18.943Z,548.00
2019-01-20T07:24:18.925Z,572.00
2019-01-20T07:25:18.918Z,596.00
2019-01-20T07:26:18.903Z,624.00
2019-01-20T07:27:18.893Z,648.00
2019-01-20T07:28:18.893Z,672.00
2019-01-20T07:29:18.873Z,704.00
2019-01-20T07:30:18.863Z,728.00
2019-01-20T07:31:18.857Z,756.00
2019-01-20T07:32:18.841Z,784.00
2019-01-20T07:33:18.841Z,808.00
2019-01-20T07:34:18.821Z,836.00
2019-01-20T07:35:18.813Z,864.00
2019-01-20T07:36:18.800Z,892.00
2019-01-20T07:37:18.795Z,916.00
2019-01-20T07:38:18.789Z,940.00
2019-01-20T07:39:18.769Z,972.00
2019-01-20T07:40:18.759Z,1004.00
2019-01-20T07:41:18.750Z,1028.00
2019-01-20T07:42:18.739Z,1056.00
2019-01-20T07:43:18.744Z,1084.00
2019-01-20T07:44:18.719Z,1108.00
2019-01-20T07:45:18.712Z,1136.00
2019-01-20T07:46:18.702Z,1164.00
2019-01-20T07:47:18.688Z,1188.00
2019-01-20T07:48:18.686Z,1212.00
2019-01-20T07:49:18.674Z,1240.00
2019-01-20T07:50:18.657Z,1260.00
2019-01-20T07:51:18.647Z,1292.00
2019-01-20T07:52:18.644Z,1316.00
2019-01-20T07:53:18.635Z,1344.00
2019-01-20T07:54:18.616Z,1376.00
2019-01-20T07:55:18.609Z,1408.00
2019-01-20T07:56:18.602Z,1440.00
2019-01-20T07:57:18.586Z,1460.00
2019-01-20T07:58:18.586Z,1488.00
2019-01-20T07:59:18.574Z,1492.00
2019-01-20T08:00:18.556Z,1508.00
2019-01-20T08:01:18.549Z,1540.00
2019-01-20T08:02:18.535Z,1584.00
2019-01-20T08:03:18.554Z,1628.00
2019-01-20T08:04:18.516Z,1696.00
2019-01-20T08:05:18.505Z,1784.00
2019-01-20T08:06:18.493Z,1856.00
2019-01-20T08:07:18.489Z,1864.00
2019-01-20T08:08:18.479Z,1784.00
2019-01-20T08:09:18.476Z,1752.00
2019-01-20T08:10:18.452Z,1764.00
2019-01-20T08:11:18.444Z,1816.00
2019-01-20T08:12:23.459Z,1812.00
2019-01-20T08:13:24.233Z,1804.00
2019-01-20T08:14:19.422Z,1856.00
2019-01-20T08:15:18.401Z,1936.00
2019-01-20T08:16:18.393Z,1916.00
2019-01-20T08:17:18.382Z,1896.00
2019-01-20T08:18:18.372Z,1916.00
2019-01-20T08:19:18.370Z,1904.00
2019-01-20T08:20:18.349Z,1952.00
2019-01-20T08:21:18.339Z,2076.00
2019-01-20T08:22:18.329Z,2220.00
2019-01-20T08:23:18.318Z,2256.00
2019-01-20T08:24:18.318Z,2124.00
2019-01-20T08:25:18.299Z,2080.00
2019-01-20T08:26:18.289Z,2132.00
2019-01-20T08:27:18.277Z,2224.00
2019-01-20T08:28:18.267Z,2464.00
2019-01-20T08:29:18.266Z,2612.00
2019-01-20T08:30:18.247Z,2768.00
2019-01-20T08:31:18.236Z,3252.00
2019-01-20T08:32:18.475Z,3736.00
2019-01-20T08:33:18.216Z,3796.00
2019-01-20T08:34:18.216Z,3252.00
2019-01-20T08:35:18.194Z,3464.00
2019-01-20T08:36:18.183Z,3476.00
2019-01-20T08:37:18.175Z,3708.00
2019-01-20T08:38:18.176Z,4496.00
2019-01-20T08:39:18.164Z,4932.00
2019-01-20T08:40:18.143Z,4860.00
2019-01-20T08:41:18.132Z,3844.00
2019-01-20T08:42:18.123Z,3664.00
2019-01-20T08:43:18.113Z,3772.00
2019-01-20T08:44:18.110Z,3536.00
2019-01-20T08:45:18.092Z,2608.00
2019-01-20T08:46:18.090Z,2624.00
2019-01-20T08:47:18.070Z,2672.00
2019-01-20T08:48:18.062Z,2484.00
2019-01-20T08:49:18.058Z,2296.00
2019-01-20T08:50:18.039Z,2320.00
2019-01-20T08:51:18.029Z,2336.00
2019-01-20T08:52:18.019Z,2476.00
2019-01-20T08:53:18.014Z,3000.00
2019-01-20T08:54:18.010Z,3916.00
2019-01-20T08:55:17.987Z,4260.00
2019-01-20T08:56:17.977Z,6204.00
2019-01-20T08:57:17.965Z,6408.00
2019-01-20T08:58:17.955Z,4120.00
2019-01-20T08:59:17.953Z,3208.00
2019-01-20T09:00:17.935Z,6308.00
2019-01-20T09:01:17.928Z,7780.00
2019-01-20T09:02:17.914Z,7308.00
2019-01-20T09:03:17.904Z,5892.00
2019-01-20T09:04:17.901Z,4060.00
2019-01-20T09:05:17.884Z,3528.00
2019-01-20T09:06:17.871Z,2916.00
2019-01-20T09:07:17.864Z,2812.00
2019-01-20T09:08:17.855Z,2588.00
2019-01-20T09:09:17.851Z,2540.00
2019-01-20T09:10:17.833Z,2640.00
2019-01-20T09:11:17.820Z,2812.00
2019-01-20T09:12:17.809Z,2744.00
2019-01-20T09:13:17.800Z,2776.00
2019-01-20T09:14:17.800Z,2660.00
2019-01-20T09:15:17.778Z,2676.00
2019-01-20T09:16:17.768Z,2568.00
2019-01-20T09:17:17.759Z,2448.00
2019-01-20T09:18:17.747Z,2472.00
2019-01-20T09:19:17.763Z,2528.00
2019-01-20T09:20:17.729Z,2504.00
2019-01-20T09:21:17.718Z,2564.00
2019-01-20T09:22:17.707Z,2684.00
2019-01-20T09:23:17.696Z,2684.00
2019-01-20T09:24:17.686Z,2668.00
2019-01-20T09:25:17.757Z,2732.00
2019-01-20T09:26:17.667Z,2672.00
2019-01-20T09:27:17.656Z,2528.00
2019-01-20T09:28:17.645Z,2468.00
2019-01-20T09:29:17.636Z,2440.00
2019-01-20T09:30:17.632Z,2420.00
2019-01-20T09:31:17.614Z,2428.00
2019-01-20T09:32:17.608Z,2424.00
2019-01-20T09:33:24.489Z,2392.00
2019-01-20T09:34:18.582Z,2396.00
2019-01-20T09:35:17.581Z,2392.00
2019-01-20T09:36:17.564Z,2408.00
2019-01-20T09:37:17.552Z,2408.00
2019-01-20T09:38:17.546Z,2408.00
2019-01-20T09:39:17.530Z,2400.00
2019-01-20T09:40:17.530Z,2408.00
2019-01-20T09:41:17.510Z,2416.00
2019-01-20T09:42:17.501Z,2416.00
2019-01-20T09:43:17.496Z,2412.00
2019-01-20T09:44:17.483Z,2412.00
2019-01-20T09:45:17.477Z,2420.00
2019-01-20T09:46:17.458Z,2412.00
2019-01-20T09:47:17.451Z,2412.00
2019-01-20T09:48:17.437Z,2416.00
2019-01-20T09:49:17.429Z,2420.00
2019-01-20T09:50:17.427Z,2420.00
2019-01-20T09:51:17.406Z,2424.00
2019-01-20T09:52:17.397Z,2428.00
2019-01-20T09:53:17.386Z,2428.00
2019-01-20T09:54:17.375Z,2440.00
2019-01-20T09:55:17.373Z,2440.00
2019-01-20T09:56:17.361Z,2448.00
2019-01-20T09:57:17.344Z,2460.00
2019-01-20T09:58:17.335Z,2468.00
2019-01-20T09:59:17.324Z,2484.00
2019-01-20T10:00:17.327Z,2488.00
2019-01-20T10:01:17.307Z,2484.00
2019-01-20T10:02:17.293Z,2500.00
2019-01-20T10:03:17.283Z,2516.00
2019-01-20T10:04:17.276Z,2528.00
2019-01-20T10:05:17.275Z,2540.00
2019-01-20T10:06:17.255Z,2544.00
2019-01-20T10:07:17.246Z,2572.00
2019-01-20T10:08:17.231Z,2588.00
2019-01-20T10:09:17.222Z,2592.00
2019-01-20T10:10:17.221Z,2604.00
2019-01-20T10:11:17.200Z,2620.00
2019-01-20T10:12:17.194Z,2632.00
2019-01-20T10:13:17.186Z,2640.00
2019-01-20T10:14:17.169Z,2660.00
2019-01-20T10:15:17.169Z,2660.00
2019-01-20T10:16:17.149Z,2672.00
2019-01-20T10:17:17.138Z,2684.00
2019-01-20T10:18:17.134Z,2684.00
2019-01-20T10:19:17.117Z,2692.00
2019-01-20T10:20:17.135Z,2692.00
2019-01-20T10:21:17.099Z,2688.00
2019-01-20T10:22:17.085Z,2700.00
2019-01-20T10:23:17.076Z,2712.00
2019-01-20T10:24:17.063Z,2684.00
2019-01-20T10:25:17.056Z,2680.00
2019-01-20T10:26:17.058Z,2700.00
2019-01-20T10:27:17.033Z,2696.00
2019-01-20T10:28:17.022Z,2692.00
2019-01-20T10:29:17.010Z,2700.00
2019-01-20T10:30:16.999Z,2704.00
2019-01-20T10:31:17.001Z,2696.00
2019-01-20T10:32:16.980Z,2684.00
2019-01-20T10:33:16.968Z,2700.00
2019-01-20T10:34:16.958Z,2688.00
2019-01-20T10:35:16.949Z,2696.00
2019-01-20T10:36:16.952Z,2704.00
2019-01-20T10:37:16.927Z,2708.00
2019-01-20T10:38:16.922Z,2700.00
2019-01-20T10:39:16.907Z,2692.00
2019-01-20T10:40:16.894Z,2696.00
2019-01-20T10:41:16.894Z,2700.00
2019-01-20T10:42:16.873Z,2704.00
2019-01-20T10:43:16.863Z,2696.00
2019-01-20T10:44:16.853Z,2692.00
2019-01-20T10:45:16.843Z,2696.00
2019-01-20T10:46:16.838Z,2688.00
2019-01-20T10:47:16.822Z,2696.00
2019-01-20T10:48:16.813Z,2708.00
2019-01-20T10:49:16.804Z,2720.00
2019-01-20T10:50:16.786Z,2712.00
2019-01-20T10:51:16.784Z,2716.00
2019-01-20T10:52:16.765Z,2724.00
2019-01-20T10:53:16.758Z,2724.00
2019-01-20T10:54:16.750Z,2736.00
2019-01-20T10:55:16.746Z,2736.00
2019-01-20T10:56:16.730Z,2732.00
2019-01-20T10:57:16.713Z,2748.00
2019-01-20T10:58:16.700Z,2748.00
2019-01-20T10:59:16.691Z,2748.00
2019-01-20T11:00:16.680Z,2756.00
2019-01-20T11:01:16.708Z,2748.00
2019-01-20T11:02:16.658Z,2744.00
2019-01-20T11:03:16.646Z,2744.00
2019-01-20T11:04:16.636Z,2736.00
2019-01-20T11:05:16.626Z,2748.00
2019-01-20T11:06:16.623Z,2740.00
2019-01-20T11:07:16.611Z,2760.00
2019-01-20T11:08:16.593Z,2752.00
2019-01-20T11:09:16.583Z,2772.00
2019-01-20T11:10:16.574Z,2752.00
2019-01-20T11:11:16.561Z,2748.00
2019-01-20T11:12:16.559Z,2748.00
2019-01-20T11:13:16.539Z,2748.00
2019-01-20T11:14:16.530Z,2740.00
2019-01-20T11:15:16.518Z,2732.00
2019-01-20T11:16:16.507Z,2724.00
2019-01-20T11:17:16.506Z,2724.00
2019-01-20T11:18:16.490Z,2728.00
2019-01-20T11:19:16.475Z,2720.00
2019-01-20T11:20:16.465Z,2716.00
2019-01-20T11:21:16.456Z,2696.00
2019-01-20T11:22:16.454Z,2708.00
2019-01-20T11:23:16.436Z,2704.00
2019-01-20T11:24:16.428Z,2696.00
2019-01-20T11:25:16.411Z,2704.00
2019-01-20T11:26:16.400Z,2696.00
2019-01-20T11:27:16.398Z,2672.00
2019-01-20T11:28:16.383Z,2668.00
2019-01-20T11:29:16.370Z,2660.00
2019-01-20T11:30:16.357Z,2676.00
2019-01-20T11:31:16.347Z,2668.00
2019-01-20T11:32:16.346Z,2656.00
2019-01-20T11:33:16.326Z,2672.00
2019-01-20T11:34:16.319Z,2676.00
2019-01-20T11:35:16.305Z,2656.00
2019-01-20T11:36:16.294Z,2656.00
2019-01-20T11:37:16.294Z,2652.00
2019-01-20T11:38:16.280Z,2644.00
2019-01-20T11:39:16.266Z,2640.00
2019-01-20T11:40:16.253Z,2648.00
2019-01-20T11:41:16.242Z,2644.00
2019-01-20T11:42:16.239Z,2640.00
2019-01-20T11:43:16.222Z,2632.00
2019-01-20T11:44:17.078Z,2624.00
2019-01-20T11:45:16.199Z,2628.00
2019-01-20T11:46:16.188Z,2624.00
2019-01-20T11:47:16.187Z,2628.00
2019-01-20T11:48:16.169Z,2624.00
2019-01-20T11:49:16.156Z,2632.00
2019-01-20T11:50:16.146Z,2640.00
2019-01-20T11:51:16.136Z,2636.00
2019-01-20T11:52:16.135Z,2644.00
2019-01-20T11:53:16.118Z,2636.00
2019-01-20T11:54:16.103Z,2632.00
2019-01-20T11:55:16.095Z,2632.00
2019-01-20T11:56:16.084Z,2640.00
2019-01-20T11:57:16.079Z,2636.00
2019-01-20T11:58:16.062Z,2636.00
2019-01-20T11:59:16.054Z,2640.00
2019-01-20T12:00:16.039Z,2660.00
2019-01-20T12:01:16.028Z,2652.00
2019-01-20T12:02:22.261Z,2628.00
2019-01-20T12:03:17.006Z,2624.00
2019-01-20T12:04:16.001Z,2624.00
2019-01-20T12:05:15.986Z,2624.00
2019-01-20T12:06:15.975Z,2620.00
2019-01-20T12:07:15.973Z,2664.00
2019-01-20T12:08:15.955Z,2680.00
2019-01-20T12:09:15.951Z,2680.00
2019-01-20T12:10:16.030Z,2668.00
2019-01-20T12:11:15.922Z,2676.00
2019-01-20T12:12:15.921Z,2684.00
2019-01-20T12:13:15.903Z,2688.00
2019-01-20T12:14:15.891Z,2668.00
2019-01-20T12:15:15.886Z,2648.00
2019-01-20T12:16:15.874Z,2656.00
2019-01-20T12:17:15.887Z,2668.00
2019-01-20T12:18:15.848Z,2688.00
2019-01-20T12:19:15.845Z,2680.00
2019-01-20T12:20:15.839Z,2676.00
2019-01-20T12:21:15.815Z,2660.00
2019-01-20T12:22:15.808Z,2652.00
2019-01-20T12:23:15.803Z,2668.00
2019-01-20T12:24:15.785Z,2676.00
2019-01-20T12:25:15.774Z,2660.00
2019-01-20T12:26:15.764Z,2660.00
2019-01-20T12:27:15.756Z,2664.00
2019-01-20T12:28:15.758Z,2664.00
2019-01-20T12:29:15.732Z,2676.00
2019-01-20T12:30:15.722Z,2620.00
2019-01-20T12:31:15.710Z,2632.00
2019-01-20T12:32:15.699Z,2632.00
2019-01-20T12:33:15.697Z,2612.00
2019-01-20T12:34:15.681Z,2632.00
2019-01-20T12:35:15.675Z,2632.00
2019-01-20T12:36:15.659Z,2624.00
2019-01-20T12:37:15.648Z,2592.00
2019-01-20T12:38:15.644Z,2612.00
2019-01-20T12:39:15.633Z,2588.00
2019-01-20T12:40:15.627Z,2572.00
2019-01-20T12:41:15.603Z,2492.00
2019-01-20T12:42:15.593Z,2396.00
2019-01-20T12:43:15.604Z,2556.00
2019-01-20T12:44:15.579Z,2596.00